sensor_id;sensor_type;location;lat;lon;timestamp;pressure;altitude;pressure_sealevel;temperature;humidity
50430;BME280;36359;41.556;-8.418;2023-03-15T00:00:38;59165.81;;;-146.82;100.00
50430;BME280;36359;41.556;-8.418;2023-03-15T00:04:02;59165.81;;;-146.82;100.00
50430;BME280;36359;41.556;-8.418;2023-03-15T00:07:29;59165.81;;;-146.82;100.00
50430;BME280;36359;41.556;-8.418;2023-03-15T00:10:54;59165.81;;;-146.82;100.00
50430;BME280;36359;41.556;-8.418;2023-03-15T00:14:18;59165.81;;;-146.82;100.00
50430;BME280;36359;41.556;-8.418;2023-03-15T00:17:42;59165.81;;;-146.82;100.00
50430;BME280;36359;41.556;-8.418;2023-03-15T00:21:08;59165.81;;;-146.82;100.00
50430;BME280;36359;41.556;-8.418;2023-03-15T00:24:32;59165.81;;;-146.82;100.00
50430;BME280;36359;41.556;-8.418;2023-03-15T00:27:56;59165.81;;;-146.82;100.00
50430;BME280;36359;41.556;-8.418;2023-03-15T00:31:23;59165.81;;;-146.82;100.00
50430;BME280;36359;41.556;-8.418;2023-03-15T00:34:48;59165.81;;;-146.82;100.00
50430;BME280;36359;41.556;-8.418;2023-03-15T00:38:13;59165.81;;;-146.82;100.00
50430;BME280;36359;41.556;-8.418;2023-03-15T00:41:39;59165.81;;;-146.82;100.00
50430;BME280;36359;41.556;-8.418;2023-03-15T00:45:03;59165.81;;;-146.82;100.00
50430;BME280;36359;41.556;-8.418;2023-03-15T00:48:28;59165.81;;;-146.82;100.00
50430;BME280;36359;41.556;-8.418;2023-03-15T00:51:59;59165.81;;;-146.82;100.00
50430;BME280;36359;41.556;-8.418;2023-03-15T00:55:24;59165.81;;;-146.82;100.00
50430;BME280;36359;41.556;-8.418;2023-03-15T00:58:50;59165.81;;;-146.82;100.00
50430;BME280;36359;41.556;-8.418;2023-03-15T01:02:19;59165.81;;;-146.82;100.00
50430;BME280;36359;41.556;-8.418;2023-03-15T01:05:46;59165.81;;;-146.82;100.00
50430;BME280;36359;41.556;-8.418;2023-03-15T01:09:11;59165.81;;;-146.82;100.00
50430;BME280;36359;41.556;-8.418;2023-03-15T01:12:35;59165.81;;;-146.82;100.00
50430;BME280;36359;41.556;-8.418;2023-03-15T01:16:01;59165.81;;;-146.82;100.00
50430;BME280;36359;41.556;-8.418;2023-03-15T01:19:26;59165.81;;;-146.82;100.00
50430;BME280;36359;41.556;-8.418;2023-03-15T01:22:50;59165.81;;;-146.82;100.00
50430;BME280;36359;41.556;-8.418;2023-03-15T01:26:15;59165.81;;;-146.82;100.00
50430;BME280;36359;41.556;-8.418;2023-03-15T01:29:41;59165.81;;;-146.82;100.00
50430;BME280;36359;41.556;-8.418;2023-03-15T01:33:06;59165.81;;;-146.82;100.00
50430;BME280;36359;41.556;-8.418;2023-03-15T01:36:30;59165.81;;;-146.82;100.00
50430;BME280;36359;41.556;-8.418;2023-03-15T01:39:55;59165.81;;;-146.82;100.00
50430;BME280;36359;41.556;-8.418;2023-03-15T01:43:20;59165.81;;;-146.82;100.00
50430;BME280;36359;41.556;-8.418;2023-03-15T01:46:57;59165.81;;;-146.82;100.00
50430;BME280;36359;41.556;-8.418;2023-03-15T01:50:24;59165.81;;;-146.82;100.00
50430;BME280;36359;41.556;-8.418;2023-03-15T01:53:53;59165.81;;;-146.82;100.00
50430;BME280;36359;41.556;-8.418;2023-03-15T01:57:24;59165.81;;;-146.82;100.00
50430;BME280;36359;41.556;-8.418;2023-03-15T02:00:52;59165.81;;;-146.82;100.00
50430;BME280;36359;41.556;-8.418;2023-03-15T02:04:26;59165.81;;;-146.82;100.00
50430;BME280;36359;41.556;-8.418;2023-03-15T02:07:52;59165.81;;;-146.82;100.00
50430;BME280;36359;41.556;-8.418;2023-03-15T02:11:23;59165.81;;;-146.82;100.00
50430;BME280;36359;41.556;-8.418;2023-03-15T02:14:50;59165.81;;;-146.82;100.00
50430;BME280;36359;41.556;-8.418;2023-03-15T02:18:19;59165.81;;;-146.82;100.00
50430;BME280;36359;41.556;-8.418;2023-03-15T02:22:10;59165.81;;;-146.82;100.00
50430;BME280;36359;41.556;-8.418;2023-03-15T02:29:24;59165.81;;;-146.82;100.00
50430;BME280;36359;41.556;-8.418;2023-03-15T02:32:50;59165.81;;;-146.82;100.00
50430;BME280;36359;41.556;-8.418;2023-03-15T02:36:17;59165.81;;;-146.82;100.00
50430;BME280;36359;41.556;-8.418;2023-03-15T02:39:41;59165.81;;;-146.82;100.00
50430;BME280;36359;41.556;-8.418;2023-03-15T02:43:08;59165.81;;;-146.82;100.00
50430;BME280;36359;41.556;-8.418;2023-03-15T02:46:35;59165.81;;;-146.82;100.00
50430;BME280;36359;41.556;-8.418;2023-03-15T02:50:02;59165.81;;;-146.82;100.00
50430;BME280;36359;41.556;-8.418;2023-03-15T02:53:28;59165.81;;;-146.82;100.00
50430;BME280;36359;41.556;-8.418;2023-03-15T02:56:52;59165.81;;;-146.82;100.00
50430;BME280;36359;41.556;-8.418;2023-03-15T03:00:17;59165.81;;;-146.82;100.00
50430;BME280;36359;41.556;-8.418;2023-03-15T03:03:44;59165.81;;;-146.82;100.00
50430;BME280;36359;41.556;-8.418;2023-03-15T03:07:11;59165.81;;;-146.82;100.00
50430;BME280;36359;41.556;-8.418;2023-03-15T03:10:48;59165.81;;;-146.82;100.00
50430;BME280;36359;41.556;-8.418;2023-03-15T03:14:12;59165.81;;;-146.82;100.00
50430;BME280;36359;41.556;-8.418;2023-03-15T03:17:37;59165.81;;;-146.82;100.00
50430;BME280;36359;41.556;-8.418;2023-03-15T03:21:04;59165.81;;;-146.82;100.00
50430;BME280;36359;41.556;-8.418;2023-03-15T03:24:30;59165.81;;;-146.82;100.00
50430;BME280;36359;41.556;-8.418;2023-03-15T03:27:55;59165.81;;;-146.82;100.00
50430;BME280;36359;41.556;-8.418;2023-03-15T03:31:23;59165.81;;;-146.82;100.00
50430;BME280;36359;41.556;-8.418;2023-03-15T03:34:50;59165.81;;;-146.82;100.00
50430;BME280;36359;41.556;-8.418;2023-03-15T03:38:18;59165.81;;;-146.82;100.00
50430;BME280;36359;41.556;-8.418;2023-03-15T03:41:48;59165.81;;;-146.82;100.00
50430;BME280;36359;41.556;-8.418;2023-03-15T03:45:13;59165.81;;;-146.82;100.00
50430;BME280;36359;41.556;-8.418;2023-03-15T03:48:41;59165.81;;;-146.82;100.00
50430;BME280;36359;41.556;-8.418;2023-03-15T03:52:05;59165.81;;;-146.82;100.00
50430;BME280;36359;41.556;-8.418;2023-03-15T03:55:30;59165.81;;;-146.82;100.00
50430;BME280;36359;41.556;-8.418;2023-03-15T03:58:57;59165.81;;;-146.82;100.00
50430;BME280;36359;41.556;-8.418;2023-03-15T04:02:32;59165.81;;;-146.82;100.00
50430;BME280;36359;41.556;-8.418;2023-03-15T04:06:01;59165.81;;;-146.82;100.00
50430;BME280;36359;41.556;-8.418;2023-03-15T04:09:30;59165.81;;;-146.82;100.00
50430;BME280;36359;41.556;-8.418;2023-03-15T04:12:55;59165.81;;;-146.82;100.00
50430;BME280;36359;41.556;-8.418;2023-03-15T04:16:20;59165.81;;;-146.82;100.00
50430;BME280;36359;41.556;-8.418;2023-03-15T04:20:10;59165.81;;;-146.82;100.00
50430;BME280;36359;41.556;-8.418;2023-03-15T04:23:39;59165.81;;;-146.82;100.00
50430;BME280;36359;41.556;-8.418;2023-03-15T04:27:35;59165.81;;;-146.82;100.00
50430;BME280;36359;41.556;-8.418;2023-03-15T04:31:23;59165.81;;;-146.82;100.00
50430;BME280;36359;41.556;-8.418;2023-03-15T04:35:14;59165.81;;;-146.82;100.00
50430;BME280;36359;41.556;-8.418;2023-03-15T04:38:55;59165.81;;;-146.82;100.00
50430;BME280;36359;41.556;-8.418;2023-03-15T04:42:41;59165.81;;;-146.82;100.00
50430;BME280;36359;41.556;-8.418;2023-03-15T04:46:44;59165.81;;;-146.82;100.00
50430;BME280;36359;41.556;-8.418;2023-03-15T04:50:38;59165.81;;;-146.82;100.00
50430;BME280;36359;41.556;-8.418;2023-03-15T04:54:22;59165.81;;;-146.82;100.00
50430;BME280;36359;41.556;-8.418;2023-03-15T04:58:00;59165.81;;;-146.82;100.00
50430;BME280;36359;41.556;-8.418;2023-03-15T05:01:36;59165.81;;;-146.82;100.00
50430;BME280;36359;41.556;-8.418;2023-03-15T05:05:18;59165.81;;;-146.82;100.00
50430;BME280;36359;41.556;-8.418;2023-03-15T05:09:02;59165.81;;;-146.82;100.00
50430;BME280;36359;41.556;-8.418;2023-03-15T05:12:41;59165.81;;;-146.82;100.00
50430;BME280;36359;41.556;-8.418;2023-03-15T05:16:20;59165.81;;;-146.82;100.00
50430;BME280;36359;41.556;-8.418;2023-03-15T05:19:59;59165.81;;;-146.82;100.00
50430;BME280;36359;41.556;-8.418;2023-03-15T05:23:43;59165.81;;;-146.82;100.00
50430;BME280;36359;41.556;-8.418;2023-03-15T05:27:24;59165.81;;;-146.82;100.00
50430;BME280;36359;41.556;-8.418;2023-03-15T05:31:04;59165.81;;;-146.82;100.00
50430;BME280;36359;41.556;-8.418;2023-03-15T05:34:47;59165.81;;;-146.82;100.00
50430;BME280;36359;41.556;-8.418;2023-03-15T05:38:22;59165.81;;;-146.82;100.00
50430;BME280;36359;41.556;-8.418;2023-03-15T05:42:06;59165.81;;;-146.82;100.00
50430;BME280;36359;41.556;-8.418;2023-03-15T05:45:34;59165.81;;;-146.82;100.00
50430;BME280;36359;41.556;-8.418;2023-03-15T05:49:18;59165.81;;;-146.82;100.00
50430;BME280;36359;41.556;-8.418;2023-03-15T05:52:50;59165.81;;;-146.82;100.00
50430;BME280;36359;41.556;-8.418;2023-03-15T05:56:22;59165.81;;;-146.82;100.00
50430;BME280;36359;41.556;-8.418;2023-03-15T06:00:07;59165.81;;;-146.82;100.00
50430;BME280;36359;41.556;-8.418;2023-03-15T06:03:38;59165.81;;;-146.82;100.00
50430;BME280;36359;41.556;-8.418;2023-03-15T06:07:11;59165.81;;;-146.82;100.00
50430;BME280;36359;41.556;-8.418;2023-03-15T06:10:36;59165.81;;;-146.82;100.00
50430;BME280;36359;41.556;-8.418;2023-03-15T06:14:04;59165.81;;;-146.82;100.00
50430;BME280;36359;41.556;-8.418;2023-03-15T06:17:42;59165.81;;;-146.82;100.00
50430;BME280;36359;41.556;-8.418;2023-03-15T06:21:07;59165.81;;;-146.82;100.00
50430;BME280;36359;41.556;-8.418;2023-03-15T06:24:32;59165.81;;;-146.82;100.00
50430;BME280;36359;41.556;-8.418;2023-03-15T06:27:57;59165.81;;;-146.82;100.00
50430;BME280;36359;41.556;-8.418;2023-03-15T06:31:21;59165.81;;;-146.82;100.00
50430;BME280;36359;41.556;-8.418;2023-03-15T06:35:06;59165.81;;;-146.82;100.00
50430;BME280;36359;41.556;-8.418;2023-03-15T06:38:32;59165.81;;;-146.82;100.00
50430;BME280;36359;41.556;-8.418;2023-03-15T06:41:56;59165.81;;;-146.82;100.00
50430;BME280;36359;41.556;-8.418;2023-03-15T06:45:23;59165.81;;;-146.82;100.00
50430;BME280;36359;41.556;-8.418;2023-03-15T06:48:48;59165.81;;;-146.82;100.00
50430;BME280;36359;41.556;-8.418;2023-03-15T06:52:13;59165.81;;;-146.82;100.00
50430;BME280;36359;41.556;-8.418;2023-03-15T06:55:38;59165.81;;;-146.82;100.00
50430;BME280;36359;41.556;-8.418;2023-03-15T06:59:03;59165.81;;;-146.82;100.00
50430;BME280;36359;41.556;-8.418;2023-03-15T07:02:27;59165.81;;;-146.82;100.00
50430;BME280;36359;41.556;-8.418;2023-03-15T07:05:56;59165.81;;;-146.82;100.00
50430;BME280;36359;41.556;-8.418;2023-03-15T07:09:21;59165.81;;;-146.82;100.00
50430;BME280;36359;41.556;-8.418;2023-03-15T07:12:45;59165.81;;;-146.82;100.00
50430;BME280;36359;41.556;-8.418;2023-03-15T07:16:10;59165.81;;;-146.82;100.00
50430;BME280;36359;41.556;-8.418;2023-03-15T07:19:34;59165.81;;;-146.82;100.00
50430;BME280;36359;41.556;-8.418;2023-03-15T07:22:58;59165.81;;;-146.82;100.00
50430;BME280;36359;41.556;-8.418;2023-03-15T07:26:22;59165.81;;;-146.82;100.00
50430;BME280;36359;41.556;-8.418;2023-03-15T07:29:46;59165.81;;;-146.82;100.00
50430;BME280;36359;41.556;-8.418;2023-03-15T07:33:11;59165.81;;;-146.82;100.00
50430;BME280;36359;41.556;-8.418;2023-03-15T07:36:35;59165.81;;;-146.82;100.00
50430;BME280;36359;41.556;-8.418;2023-03-15T07:39:59;59165.81;;;-146.82;100.00
50430;BME280;36359;41.556;-8.418;2023-03-15T07:43:36;59165.81;;;-146.82;100.00
50430;BME280;36359;41.556;-8.418;2023-03-15T07:47:18;59165.81;;;-146.82;100.00
50430;BME280;36359;41.556;-8.418;2023-03-15T07:50:42;59165.81;;;-146.82;100.00
50430;BME280;36359;41.556;-8.418;2023-03-15T07:54:08;59165.81;;;-146.82;100.00
50430;BME280;36359;41.556;-8.418;2023-03-15T07:57:32;59165.81;;;-146.82;100.00
50430;BME280;36359;41.556;-8.418;2023-03-15T08:00:56;59165.81;;;-146.82;100.00
50430;BME280;36359;41.556;-8.418;2023-03-15T08:04:21;59165.81;;;-146.82;100.00
50430;BME280;36359;41.556;-8.418;2023-03-15T08:07:47;59165.81;;;-146.82;100.00
50430;BME280;36359;41.556;-8.418;2023-03-15T08:11:21;59165.81;;;-146.82;100.00
50430;BME280;36359;41.556;-8.418;2023-03-15T08:14:48;59165.81;;;-146.82;100.00
50430;BME280;36359;41.556;-8.418;2023-03-15T08:18:19;59165.81;;;-146.82;100.00
50430;BME280;36359;41.556;-8.418;2023-03-15T08:21:59;59165.81;;;-146.82;100.00
50430;BME280;36359;41.556;-8.418;2023-03-15T08:25:26;59165.81;;;-146.82;100.00
50430;BME280;36359;41.556;-8.418;2023-03-15T08:29:16;59165.81;;;-146.82;100.00
50430;BME280;36359;41.556;-8.418;2023-03-15T08:32:43;59165.81;;;-146.82;100.00
50430;BME280;36359;41.556;-8.418;2023-03-15T08:36:08;59165.81;;;-146.82;100.00
50430;BME280;36359;41.556;-8.418;2023-03-15T08:39:37;59165.81;;;-146.82;100.00
50430;BME280;36359;41.556;-8.418;2023-03-15T08:43:05;59165.81;;;-146.82;100.00
50430;BME280;36359;41.556;-8.418;2023-03-15T08:46:31;59165.81;;;-146.82;100.00
50430;BME280;36359;41.556;-8.418;2023-03-15T08:50:03;59165.81;;;-146.82;100.00
50430;BME280;36359;41.556;-8.418;2023-03-15T08:53:32;59165.81;;;-146.82;100.00
50430;BME280;36359;41.556;-8.418;2023-03-15T08:56:57;59165.81;;;-146.82;100.00
50430;BME280;36359;41.556;-8.418;2023-03-15T09:00:23;59165.81;;;-146.82;100.00
50430;BME280;36359;41.556;-8.418;2023-03-15T09:03:47;59165.81;;;-146.82;100.00
50430;BME280;36359;41.556;-8.418;2023-03-15T09:07:13;59165.81;;;-146.82;100.00
50430;BME280;36359;41.556;-8.418;2023-03-15T09:10:38;59165.81;;;-146.82;100.00
50430;BME280;36359;41.556;-8.418;2023-03-15T09:14:03;59165.81;;;-146.82;100.00
50430;BME280;36359;41.556;-8.418;2023-03-15T09:17:28;59165.81;;;-146.82;100.00
50430;BME280;36359;41.556;-8.418;2023-03-15T09:21:00;59165.81;;;-146.82;100.00
50430;BME280;36359;41.556;-8.418;2023-03-15T09:24:26;59165.81;;;-146.82;100.00
50430;BME280;36359;41.556;-8.418;2023-03-15T09:27:51;59165.81;;;-146.82;100.00
50430;BME280;36359;41.556;-8.418;2023-03-15T09:31:16;59165.81;;;-146.82;100.00
50430;BME280;36359;41.556;-8.418;2023-03-15T09:34:41;59165.81;;;-146.82;100.00
50430;BME280;36359;41.556;-8.418;2023-03-15T09:38:06;59165.81;;;-146.82;100.00
50430;BME280;36359;41.556;-8.418;2023-03-15T09:41:42;59165.81;;;-146.82;100.00
50430;BME280;36359;41.556;-8.418;2023-03-15T09:48:56;59165.81;;;-146.82;100.00
50430;BME280;36359;41.556;-8.418;2023-03-15T09:53:04;59165.81;;;-146.82;100.00
50430;BME280;36359;41.556;-8.418;2023-03-15T09:56:28;59165.81;;;-146.82;100.00
50430;BME280;36359;41.556;-8.418;2023-03-15T09:59:58;59165.81;;;-146.82;100.00
50430;BME280;36359;41.556;-8.418;2023-03-15T10:07:26;59165.81;;;-146.82;100.00
50430;BME280;36359;41.556;-8.418;2023-03-15T10:10:53;59165.81;;;-146.82;100.00
50430;BME280;36359;41.556;-8.418;2023-03-15T10:22:00;59165.81;;;-146.82;100.00
50430;BME280;36359;41.556;-8.418;2023-03-15T10:25:40;59165.81;;;-146.82;100.00
50430;BME280;36359;41.556;-8.418;2023-03-15T10:29:19;59165.81;;;-146.82;100.00
50430;BME280;36359;41.556;-8.418;2023-03-15T10:32:44;59165.81;;;-146.82;100.00
50430;BME280;36359;41.556;-8.418;2023-03-15T10:36:20;59165.81;;;-146.82;100.00
50430;BME280;36359;41.556;-8.418;2023-03-15T10:39:45;59165.81;;;-146.82;100.00
50430;BME280;36359;41.556;-8.418;2023-03-15T10:43:32;59165.81;;;-146.82;100.00
50430;BME280;36359;41.556;-8.418;2023-03-15T10:47:04;59165.81;;;-146.82;100.00
50430;BME280;36359;41.556;-8.418;2023-03-15T10:50:36;59165.81;;;-146.82;100.00
50430;BME280;36359;41.556;-8.418;2023-03-15T10:57:51;59165.81;;;-146.82;100.00
50430;BME280;36359;41.556;-8.418;2023-03-15T11:01:28;59165.81;;;-146.82;100.00
50430;BME280;36359;41.556;-8.418;2023-03-15T11:05:18;59165.81;;;-146.82;100.00
50430;BME280;36359;41.556;-8.418;2023-03-15T11:09:06;59165.81;;;-146.82;100.00
50430;BME280;36359;41.556;-8.418;2023-03-15T11:12:46;59165.81;;;-146.82;100.00
50430;BME280;36359;41.556;-8.418;2023-03-15T11:19:48;59165.81;;;-146.82;100.00
50430;BME280;36359;41.556;-8.418;2023-03-15T11:23:19;59165.81;;;-146.82;100.00
50430;BME280;36359;41.556;-8.418;2023-03-15T11:26:46;59165.81;;;-146.82;100.00
50430;BME280;36359;41.556;-8.418;2023-03-15T11:30:20;59165.81;;;-146.82;100.00
50430;BME280;36359;41.556;-8.418;2023-03-15T11:33:54;59165.81;;;-146.82;100.00
50430;BME280;36359;41.556;-8.418;2023-03-15T11:37:24;59165.81;;;-146.82;100.00
50430;BME280;36359;41.556;-8.418;2023-03-15T11:40:56;59165.81;;;-146.82;100.00
50430;BME280;36359;41.556;-8.418;2023-03-15T11:44:44;59165.81;;;-146.82;100.00
50430;BME280;36359;41.556;-8.418;2023-03-15T11:51:50;59165.81;;;-146.82;100.00
50430;BME280;36359;41.556;-8.418;2023-03-15T11:55:19;59165.81;;;-146.82;100.00
50430;BME280;36359;41.556;-8.418;2023-03-15T11:58:58;59165.81;;;-146.82;100.00
50430;BME280;36359;41.556;-8.418;2023-03-15T12:09:49;59165.81;;;-146.82;100.00
50430;BME280;36359;41.556;-8.418;2023-03-15T12:13:25;59165.81;;;-146.82;100.00
50430;BME280;36359;41.556;-8.418;2023-03-15T12:16:50;59165.81;;;-146.82;100.00
50430;BME280;36359;41.556;-8.418;2023-03-15T12:20:29;59165.81;;;-146.82;100.00
50430;BME280;36359;41.556;-8.418;2023-03-15T12:24:33;59165.81;;;-146.82;100.00
50430;BME280;36359;41.556;-8.418;2023-03-15T12:27:57;59165.81;;;-146.82;100.00
50430;BME280;36359;41.556;-8.418;2023-03-15T12:31:51;59165.81;;;-146.82;100.00
50430;BME280;36359;41.556;-8.418;2023-03-15T12:35:23;59165.81;;;-146.82;100.00
50430;BME280;36359;41.556;-8.418;2023-03-15T12:54:12;59165.81;;;-146.82;100.00
50430;BME280;36359;41.556;-8.418;2023-03-15T12:57:49;59165.81;;;-146.82;100.00
50430;BME280;36359;41.556;-8.418;2023-03-15T13:01:21;59165.81;;;-146.82;100.00
50430;BME280;36359;41.556;-8.418;2023-03-15T13:08:59;59165.81;;;-146.82;100.00
50430;BME280;36359;41.556;-8.418;2023-03-15T13:12:41;59165.81;;;-146.82;100.00
50430;BME280;36359;41.556;-8.418;2023-03-15T13:23:42;59165.81;;;-146.82;100.00
50430;BME280;36359;41.556;-8.418;2023-03-15T13:34:49;59165.81;;;-146.82;100.00
50430;BME280;36359;41.556;-8.418;2023-03-15T13:38:22;59165.81;;;-146.82;100.00
50430;BME280;36359;41.556;-8.418;2023-03-15T13:41:47;59165.81;;;-146.82;100.00
50430;BME280;36359;41.556;-8.418;2023-03-15T13:45:16;59165.81;;;-146.82;100.00
50430;BME280;36359;41.556;-8.418;2023-03-15T13:48:41;59165.81;;;-146.82;100.00
50430;BME280;36359;41.556;-8.418;2023-03-15T13:52:06;59165.81;;;-146.82;100.00
50430;BME280;36359;41.556;-8.418;2023-03-15T13:55:35;59165.81;;;-146.82;100.00
50430;BME280;36359;41.556;-8.418;2023-03-15T13:59:04;59165.81;;;-146.82;100.00
50430;BME280;36359;41.556;-8.418;2023-03-15T14:05:57;59165.81;;;-146.82;100.00
50430;BME280;36359;41.556;-8.418;2023-03-15T14:09:24;59165.81;;;-146.82;100.00
50430;BME280;36359;41.556;-8.418;2023-03-15T14:13:16;59165.81;;;-146.82;100.00
50430;BME280;36359;41.556;-8.418;2023-03-15T14:16:45;59165.81;;;-146.82;100.00
50430;BME280;36359;41.556;-8.418;2023-03-15T14:20:15;59165.81;;;-146.82;100.00
50430;BME280;36359;41.556;-8.418;2023-03-15T14:23:41;59165.81;;;-146.82;100.00
50430;BME280;36359;41.556;-8.418;2023-03-15T14:27:18;59165.81;;;-146.82;100.00
50430;BME280;36359;41.556;-8.418;2023-03-15T14:31:03;59165.81;;;-146.82;100.00
50430;BME280;36359;41.556;-8.418;2023-03-15T14:34:42;59165.81;;;-146.82;100.00
50430;BME280;36359;41.556;-8.418;2023-03-15T14:40:34;99990.78;;;20.84;43.98
50430;BME280;36359;41.556;-8.418;2023-03-15T14:43:01;99987.09;;;20.72;49.52
50430;BME280;36359;41.556;-8.418;2023-03-15T14:45:29;99974.19;;;20.66;44.32
50430;BME280;36359;41.556;-8.418;2023-03-15T14:48:04;99970.34;;;20.74;48.65
50430;BME280;36359;41.556;-8.418;2023-03-15T14:50:38;99969.34;;;20.61;50.26
50430;BME280;36359;41.556;-8.418;2023-03-15T14:53:06;99966.88;;;20.22;47.15
50430;BME280;36359;41.556;-8.418;2023-03-15T14:55:36;99964.88;;;20.35;47.38
50430;BME280;36359;41.556;-8.418;2023-03-15T14:58:03;99956.31;;;20.43;43.23
50430;BME280;36359;41.556;-8.418;2023-03-15T15:00:31;99950.22;;;20.35;51.26
50430;BME280;36359;41.556;-8.418;2023-03-15T15:02:57;99946.06;;;20.26;50.01
50430;BME280;36359;41.556;-8.418;2023-03-15T15:05:31;99945.03;;;20.20;48.16
50430;BME280;36359;41.556;-8.418;2023-03-15T15:08:18;99944.84;;;20.22;48.30
50430;BME280;36359;41.556;-8.418;2023-03-15T15:10:49;99938.69;;;20.19;51.70
50430;BME280;36359;41.556;-8.418;2023-03-15T15:13:27;99937.91;;;20.06;51.17
50430;BME280;36359;41.556;-8.418;2023-03-15T15:15:54;99934.53;;;20.10;50.23
50430;BME280;36359;41.556;-8.418;2023-03-15T15:18:21;99920.31;;;20.13;46.35
50430;BME280;36359;41.556;-8.418;2023-03-15T15:20:47;99923.91;;;20.14;48.12
50430;BME280;36359;41.556;-8.418;2023-03-15T15:23:21;99921.72;;;20.23;49.18
50430;BME280;36359;41.556;-8.418;2023-03-15T15:25:49;99920.31;;;20.13;50.27
50430;BME280;36359;41.556;-8.418;2023-03-15T15:28:15;99920.88;;;20.22;49.84
50430;BME280;36359;41.556;-8.418;2023-03-15T15:30:41;99905.69;;;20.13;49.73
50430;BME280;36359;41.556;-8.418;2023-03-15T15:33:06;99900.63;;;20.10;52.17
50430;BME280;36359;41.556;-8.418;2023-03-15T15:35:32;99901.72;;;20.02;49.37
50430;BME280;36359;41.556;-8.418;2023-03-15T15:37:58;99896.66;;;19.99;51.04
50430;BME280;36359;41.556;-8.418;2023-03-15T15:40:30;99898.78;;;20.29;47.67
50430;BME280;36359;41.556;-8.418;2023-03-15T15:42:56;99885.25;;;20.27;47.57
50430;BME280;36359;41.556;-8.418;2023-03-15T15:45:22;99881.53;;;20.15;50.52
50430;BME280;36359;41.556;-8.418;2023-03-15T15:47:49;99892.94;;;20.18;46.76
50430;BME280;36359;41.556;-8.418;2023-03-15T15:50:17;99893.34;;;20.22;50.06
50430;BME280;36359;41.556;-8.418;2023-03-15T15:52:45;99881.91;;;20.18;50.12
50430;BME280;36359;41.556;-8.418;2023-03-15T15:55:20;99880.41;;;19.91;50.60
50430;BME280;36359;41.556;-8.418;2023-03-15T15:57:50;99868.69;;;20.02;48.59
50430;BME280;36359;41.556;-8.418;2023-03-15T16:00:18;99872.72;;;20.00;49.25
50430;BME280;36359;41.556;-8.418;2023-03-15T16:02:45;99871.25;;;19.97;52.32
50430;BME280;36359;41.556;-8.418;2023-03-15T16:05:11;99872.69;;;20.06;48.59
50430;BME280;36359;41.556;-8.418;2023-03-15T16:07:39;99867.22;;;20.00;49.15
50430;BME280;36359;41.556;-8.418;2023-03-15T16:10:09;99871.44;;;20.02;50.00
50430;BME280;36359;41.556;-8.418;2023-03-15T16:12:40;99874.13;;;20.09;49.17
50430;BME280;36359;41.556;-8.418;2023-03-15T16:15:08;99858.44;;;19.84;52.39
50430;BME280;36359;41.556;-8.418;2023-03-15T16:17:35;99863.00;;;19.97;52.00
50430;BME280;36359;41.556;-8.418;2023-03-15T16:20:01;99867.00;;;20.01;49.70
50430;BME280;36359;41.556;-8.418;2023-03-15T16:22:31;99857.19;;;19.80;49.86
50430;BME280;36359;41.556;-8.418;2023-03-15T16:24:57;99865.16;;;19.95;49.07
50430;BME280;36359;41.556;-8.418;2023-03-15T16:27:27;99867.31;;;19.86;49.99
50430;BME280;36359;41.556;-8.418;2023-03-15T16:29:54;99857.94;;;19.94;50.72
50430;BME280;36359;41.556;-8.418;2023-03-15T16:32:24;99866.63;;;19.91;50.66
50430;BME280;36359;41.556;-8.418;2023-03-15T16:34:52;99865.91;;;19.77;50.40
50430;BME280;36359;41.556;-8.418;2023-03-15T16:37:23;99860.44;;;19.64;53.10
50430;BME280;36359;41.556;-8.418;2023-03-15T16:39:52;99861.75;;;19.55;53.45
50430;BME280;36359;41.556;-8.418;2023-03-15T16:42:20;99863.03;;;19.52;51.77
50430;BME280;36359;41.556;-8.418;2023-03-15T16:44:48;99865.59;;;19.54;51.84
50430;BME280;36359;41.556;-8.418;2023-03-15T16:47:16;99868.56;;;19.45;51.59
50430;BME280;36359;41.556;-8.418;2023-03-15T16:49:42;99866.66;;;19.46;52.37
50430;BME280;36359;41.556;-8.418;2023-03-15T16:52:10;99864.75;;;19.53;51.16
50430;BME280;36359;41.556;-8.418;2023-03-15T16:54:36;99856.78;;;19.32;52.19
50430;BME280;36359;41.556;-8.418;2023-03-15T16:57:10;99865.97;;;19.12;52.97
50430;BME280;36359;41.556;-8.418;2023-03-15T16:59:36;99861.75;;;19.03;55.07
50430;BME280;36359;41.556;-8.418;2023-03-15T17:02:01;99866.38;;;19.16;52.27
50430;BME280;36359;41.556;-8.418;2023-03-15T17:04:27;99855.44;;;18.96;53.54
50430;BME280;36359;41.556;-8.418;2023-03-15T17:06:53;99857.81;;;18.86;54.50
50430;BME280;36359;41.556;-8.418;2023-03-15T17:09:22;99860.09;;;18.95;54.45
50430;BME280;36359;41.556;-8.418;2023-03-15T17:11:50;99852.50;;;18.84;55.61
50430;BME280;36359;41.556;-8.418;2023-03-15T17:14:30;99858.47;;;18.74;56.62
50430;BME280;36359;41.556;-8.418;2023-03-15T17:16:59;99860.38;;;18.74;55.99
50430;BME280;36359;41.556;-8.418;2023-03-15T17:19:25;99856.75;;;18.60;57.24
50430;BME280;36359;41.556;-8.418;2023-03-15T17:21:51;99855.09;;;18.46;57.69
50430;BME280;36359;41.556;-8.418;2023-03-15T17:24:18;99856.59;;;18.42;59.37
50430;BME280;36359;41.556;-8.418;2023-03-15T17:26:44;99852.56;;;18.37;59.55
50430;BME280;36359;41.556;-8.418;2023-03-15T17:29:13;99860.78;;;18.37;59.37
50430;BME280;36359;41.556;-8.418;2023-03-15T17:31:39;99855.09;;;18.26;58.70
50430;BME280;36359;41.556;-8.418;2023-03-15T17:34:05;99855.53;;;18.16;59.17
50430;BME280;36359;41.556;-8.418;2023-03-15T17:36:34;99851.53;;;18.12;60.01
50430;BME280;36359;41.556;-8.418;2023-03-15T17:39:03;99859.75;;;18.12;59.54
50430;BME280;36359;41.556;-8.418;2023-03-15T17:41:34;99874.09;;;18.07;58.97
50430;BME280;36359;41.556;-8.418;2023-03-15T17:44:03;99865.22;;;17.92;59.99
50430;BME280;36359;41.556;-8.418;2023-03-15T17:46:29;99870.25;;;17.82;59.04
50430;BME280;36359;41.556;-8.418;2023-03-15T17:49:00;99873.19;;;17.74;60.30